Madeira, Ohio
Current Conditions -  °F | °C
As of 2:53 PM on Sunday 23 Nov 2014 (Local Time) from KLUK Reporting Station
Overcast Overcast  
Wind Chill: 58°   Ceiling: 5500
Heat Index: 58°   Visibility: 10mi
Dew Point: 47°   Wind: 15mph
Humidity: 67%   Direction: 150°SSE
Pressure: 29.7"   Gusts: 22mph
Location:  39.1838°N, 84.3411°W
Report Text: KLUK 231953Z 15013G19KT 10SM BKN055 OVC070 14/08 A2970 RMK AO2 SLP058 T01440083
Loading
Personal Weather Stations






























Interactive Weather Map New forecast layout! Learn more

10-Day Weather Forecast

Advertisements
Track Severe Weather on mobile